Monday, June 18, 2018, 8:43 PM EDT
Back to Local

KESN, Easton / Newman Field

Location: Easton, MD, United States Lat: 38.8
Local Time: 8:43 PM EDT ( 0:43 GMT) Lon: -76.067
Time Zone: US/Eastern Elev: 72 ft

Show me the last for .
Show Decoded

2018-06-18 19:50 METAR KESN 182350Z 21009KT 10SM BKN250 30/20 A2993 =
2018-06-18 18:50 METAR KESN 182250Z 21008KT 10SM SCT150 BKN250 31/21 A2994 =
2018-06-18 17:45 METAR KESN 182145Z 21010KT 10SM SCT250 33/22 A2996 =
2018-06-18 16:47 METAR KESN 182047Z 23006KT 10SM SCT250 33/23 A2998 =
2018-06-18 15:50 METAR KESN 181950Z 22008KT 10SM SCT250 33/22 A3000 =
2018-06-18 14:50 METAR KESN 181850Z 22007KT 10SM SCT250 33/20 A3003 =
2018-06-18 13:45 METAR KESN 181745Z 21007KT 10SM SCT170 32/18 A3005 =
2018-06-18 12:50 METAR KESN 181650Z 22006KT 10SM SCT170 32/20 A3006 =
2018-06-18 11:50 METAR KESN 181550Z 27006KT 10SM SKC 32/20 A3008 =
2018-06-18 09:50 METAR KESN 181350Z 00000KT 10SM SKC 29/20 A3008 =
2018-06-18 08:50 METAR KESN 181250Z 00000KT 10SM SKC 27/22 A3009 =
2018-06-18 07:50 METAR KESN 181150Z 00000KT 10SM SKC 24/22 A3011 =
2018-06-18 06:45 METAR KESN 181045Z 00000KT 10SM SKC 22/20 A3011 =
2018-06-18 05:36 METAR KESN 180936Z AUTO 00000KT 5SM BR CLR 21/20 A3011 RMK AO2 T02130201 =
2018-06-18 05:27 METAR KESN 180929Z AUTO 00000KT 7SM CLR 21/20 A3011 RMK AO2 T02110199 =
2018-06-18 05:07 METAR KESN 180909Z AUTO 00000KT 10SM CLR 22/20 A3011 RMK AO2 T02150202 =
2018-06-18 04:49 METAR KESN 180849Z AUTO 35003KT 10SM CLR 21/20 A3011 RMK AO2 T02110196 =
2018-06-18 04:28 METAR KESN 180829Z AUTO 00000KT 10SM CLR 22/20 A3011 RMK AO2 T02180201 =
2018-06-18 04:07 METAR KESN 180809Z AUTO 00000KT 10SM CLR 22/20 A3010 RMK AO2 T02180202 =
2018-06-18 03:49 METAR KESN 180749Z AUTO 00000KT 10SM CLR 22/20 A3010 RMK AO2 T02170201 =
2018-06-18 03:27 METAR KESN 180729Z AUTO 00000KT 10SM CLR 22/20 A3010 RMK AO2 T02200202 =
2018-06-18 03:07 METAR KESN 180709Z AUTO 00000KT 10SM CLR 22/20 A3011 RMK AO2 T02220202 =
2018-06-18 02:49 METAR KESN 180649Z AUTO 00000KT 10SM CLR 22/20 A3011 RMK AO2 T02240201 =
2018-06-18 02:27 METAR KESN 180629Z AUTO 00000KT 10SM CLR 23/20 A3011 RMK AO2 T02250201 =
2018-06-18 02:07 METAR KESN 180609Z AUTO 16003KT 10SM CLR 23/20 A3010 RMK AO2 T02290200 =
2018-06-18 01:49 METAR KESN 180549Z AUTO 00000KT 10SM CLR 23/20 A3011 RMK AO2 T02320200 =
2018-06-18 01:27 METAR KESN 180529Z AUTO 19003KT 10SM CLR 24/20 A3011 RMK AO2 T02350200 =
2018-06-18 01:07 METAR KESN 180509Z AUTO 00000KT 10SM CLR 24/20 A3011 RMK AO2 T02370199 =
2018-06-18 00:49 METAR KESN 180449Z AUTO 00000KT 10SM CLR 24/20 A3011 RMK AO2 T02440199 =
2018-06-18 00:29 METAR KESN 180429Z AUTO 19004KT 10SM CLR 25/20 A3010 RMK AO2 T02460196 =
2018-06-18 00:08 METAR KESN 180409Z AUTO 18004KT 10SM CLR 25/20 A3010 RMK AO2 T02500197 =
2018-06-17 23:49 METAR KESN 180349Z AUTO 19004KT 10SM CLR 25/20 A3011 RMK AO2 T02530196 =
2018-06-17 23:27 METAR KESN 180329Z AUTO 00000KT 10SM CLR 26/20 A3011 RMK AO2 T02550200 =
2018-06-17 23:07 METAR KESN 180309Z AUTO 17006KT 10SM CLR 26/20 A3012 RMK AO2 T02580200 =
2018-06-17 22:49 METAR KESN 180249Z AUTO 18005KT 10SM CLR 26/20 A3013 RMK AO2 T02600197 =
2018-06-17 22:27 METAR KESN 180229Z AUTO 16004KT 10SM CLR 26/20 A3013 RMK AO2 T02620196 =
2018-06-17 21:50 METAR KESN 180150Z 15005KT 10SM SKC 26/19 A3012 =
2018-06-17 20:45 METAR KESN 180045Z 14004KT 10SM BKN170 27/20 A3011 =

Support USWX by starting your Amazon purchase here.